Time;durP1;ratioP1;P1;durP2;ratioP2;P2;SDS_P1;SDS_P2;PMS_P1;PMS_P2;Temp;Humidity;BMP_temperature;BMP_pressure;BME280_temperature;BME280_humidity;BME280_pressure;Samples;Min_cycle;Max_cycle;Signal;HPM_P1;HPM_P2
2021/10/06 00:02:12;;;;;;;10.77;5.63;;;11.40;99.90;;;;;;5028474;28;20124;-76
2021/10/06 00:04:38;;;;;;;9.15;5.07;;;11.40;99.90;;;;;;5029043;28;20036;-74
2021/10/06 00:07:04;;;;;;;9.60;5.82;;;11.30;99.90;;;;;;5028845;28;20440;-75
2021/10/06 00:09:30;;;;;;;8.27;5.20;;;11.30;99.90;;;;;;5046087;28;20136;-75
2021/10/06 00:11:56;;;;;;;7.13;5.10;;;11.30;99.90;;;;;;5029407;28;20036;-75
2021/10/06 00:14:24;;;;;;;12.10;5.22;;;11.30;99.90;;;;;;5028883;28;20046;-74
2021/10/06 00:16:53;;;;;;;13.00;5.95;;;11.30;99.90;;;;;;5027275;28;20089;-76
2021/10/06 00:19:20;;;;;;;8.50;4.75;;;11.30;99.90;;;;;;5027788;28;20495;-74
2021/10/06 00:21:46;;;;;;;11.80;5.72;;;11.30;99.90;;;;;;5044144;28;20036;-75
2021/10/06 00:24:11;;;;;;;11.75;5.63;;;11.30;99.90;;;;;;5044999;28;20407;-76
2021/10/06 00:26:37;;;;;;;12.13;5.32;;;11.30;99.90;;;;;;5024638;28;20037;-75
2021/10/06 00:29:04;;;;;;;9.43;4.68;;;11.20;99.90;;;;;;5043328;28;20048;-76
2021/10/06 00:31:29;;;;;;;11.25;4.40;;;11.30;99.90;;;;;;5009674;28;20052;-76
2021/10/06 00:33:55;;;;;;;9.98;4.30;;;11.30;99.90;;;;;;5044030;28;20028;-75
2021/10/06 00:36:21;;;;;;;9.10;4.13;;;11.30;99.90;;;;;;5026476;28;20053;-75
2021/10/06 00:38:47;;;;;;;10.98;4.00;;;11.30;99.90;;;;;;5012372;28;20511;-73
2021/10/06 00:41:13;;;;;;;10.70;4.43;;;11.30;99.90;;;;;;5045317;28;20106;-75
2021/10/06 00:43:38;;;;;;;10.52;4.18;;;11.30;99.90;;;;;;5030871;28;20048;-75
2021/10/06 00:46:04;;;;;;;9.13;3.53;;;11.20;99.90;;;;;;5031501;28;20048;-76
2021/10/06 00:48:30;;;;;;;7.97;3.65;;;11.20;99.90;;;;;;5029448;28;20132;-74
2021/10/06 00:50:56;;;;;;;9.57;3.83;;;11.20;99.90;;;;;;5031451;28;20074;-76
2021/10/06 00:53:28;;;;;;;7.60;3.45;;;11.10;99.90;;;;;;5046857;28;20281;-76
2021/10/06 00:55:55;;;;;;;6.88;3.70;;;11.10;99.90;;;;;;5030853;28;20044;-76
2021/10/06 00:58:22;;;;;;;7.60;3.40;;;11.10;99.90;;;;;;5030565;28;20072;-75
2021/10/06 01:00:48;;;;;;;8.63;3.70;;;11.10;99.90;;;;;;5031762;28;20552;-74
2021/10/06 01:03:19;;;;;;;9.95;3.75;;;11.10;99.90;;;;;;5047576;28;20041;-74
2021/10/06 01:05:45;;;;;;;6.80;3.83;;;11.10;99.90;;;;;;5030641;28;20044;-75
2021/10/06 01:08:10;;;;;;;9.57;4.13;;;11.10;99.90;;;;;;5030081;28;20037;-73
2021/10/06 01:10:36;;;;;;;8.98;4.13;;;11.10;99.90;;;;;;5048202;28;20052;-74
2021/10/06 01:13:03;;;;;;;9.27;4.07;;;11.10;99.90;;;;;;5047781;28;20127;-75
2021/10/06 01:15:28;;;;;;;7.28;3.95;;;11.10;99.90;;;;;;5031359;28;20055;-75
2021/10/06 01:17:54;;;;;;;6.75;3.90;;;11.00;99.90;;;;;;5046767;28;20040;-75
2021/10/06 01:20:20;;;;;;;7.47;3.65;;;11.00;99.90;;;;;;5047866;28;20098;-76
2021/10/06 01:22:46;;;;;;;6.18;3.47;;;11.00;99.90;;;;;;5047976;28;20063;-74
2021/10/06 01:25:15;;;;;;;7.05;3.70;;;11.00;99.90;;;;;;5029819;28;20047;-73
2021/10/06 01:27:41;;;;;;;9.43;4.07;;;11.00;99.90;;;;;;5046071;28;20041;-76
2021/10/06 01:30:09;;;;;;;8.15;3.78;;;11.00;99.90;;;;;;5030986;28;20044;-77
2021/10/06 01:32:37;;;;;;;7.05;4.20;;;11.00;99.90;;;;;;5047449;28;20062;-74
2021/10/06 01:35:06;;;;;;;10.00;3.65;;;11.00;99.90;;;;;;5047379;28;20090;-77
2021/10/06 01:37:32;;;;;;;7.90;3.90;;;11.00;99.90;;;;;;5047149;28;20086;-75
2021/10/06 01:40:00;;;;;;;7.15;3.75;;;11.00;99.90;;;;;;5047174;28;20045;-76
2021/10/06 01:42:26;;;;;;;8.63;3.90;;;11.00;99.90;;;;;;5030770;28;20045;-75
2021/10/06 01:44:51;;;;;;;7.68;3.85;;;11.00;99.90;;;;;;5030093;28;20049;-76
2021/10/06 01:47:23;;;;;;;11.15;3.92;;;11.00;99.90;;;;;;5027745;28;20433;-75
2021/10/06 01:49:50;;;;;;;7.35;4.30;;;11.00;99.90;;;;;;5047742;28;20139;-75
2021/10/06 01:52:21;;;;;;;8.00;4.20;;;11.00;99.90;;;;;;5047113;28;20044;-76
2021/10/06 01:54:48;;;;;;;9.98;4.57;;;11.00;99.90;;;;;;5047162;28;20052;-75
2021/10/06 01:57:14;;;;;;;8.60;3.95;;;11.00;99.90;;;;;;5046609;28;20044;-75
2021/10/06 01:59:42;;;;;;;7.32;3.80;;;11.00;99.90;;;;;;5031459;28;20048;-77
2021/10/06 02:02:07;;;;;;;10.88;4.30;;;11.00;99.90;;;;;;5029934;28;20063;-74
2021/10/06 02:04:33;;;;;;;8.48;4.30;;;11.00;99.90;;;;;;5032246;28;20044;-75
2021/10/06 02:06:59;;;;;;;6.97;4.57;;;11.00;99.90;;;;;;5048369;28;20044;-74
2021/10/06 02:09:25;;;;;;;8.63;4.82;;;11.00;99.90;;;;;;5049580;28;20055;-76
2021/10/06 02:11:51;;;;;;;10.27;4.43;;;11.00;99.90;;;;;;5032564;28;20667;-75
2021/10/06 02:14:17;;;;;;;7.45;4.65;;;11.00;99.90;;;;;;5032604;28;20575;-74
2021/10/06 02:16:42;;;;;;;8.80;4.82;;;10.90;99.90;;;;;;5048900;28;20079;-74
2021/10/06 02:19:08;;;;;;;8.02;4.78;;;10.90;99.90;;;;;;5034715;28;20098;-74
2021/10/06 02:21:35;;;;;;;8.20;5.10;;;10.90;99.90;;;;;;5053277;28;20520;-76
2021/10/06 02:24:02;;;;;;;9.10;5.32;;;10.90;99.90;;;;;;5051767;28;20052;-76
2021/10/06 02:26:28;;;;;;;10.20;5.68;;;10.90;99.90;;;;;;5026509;28;20499;-76
2021/10/06 02:28:53;;;;;;;9.00;6.38;;;10.90;99.90;;;;;;5043199;28;20127;-76
2021/10/06 02:31:19;;;;;;;9.95;6.22;;;10.90;99.90;;;;;;5042927;28;20080;-74
2021/10/06 02:33:45;;;;;;;9.45;6.07;;;10.90;99.90;;;;;;5017163;28;20087;-75
2021/10/06 02:36:11;;;;;;;13.02;6.45;;;10.90;99.90;;;;;;5046117;28;20049;-75
2021/10/06 02:38:36;;;;;;;11.35;6.15;;;10.90;99.90;;;;;;5035172;28;20063;-75
2021/10/06 02:41:02;;;;;;;11.75;7.68;;;10.90;99.90;;;;;;5051127;28;20040;-76
2021/10/06 02:43:28;;;;;;;9.77;6.97;;;11.00;99.90;;;;;;5048234;28;20492;-75
2021/10/06 02:45:55;;;;;;;11.90;7.22;;;11.00;99.90;;;;;;5026216;28;20037;-78
2021/10/06 02:48:23;;;;;;;10.93;8.00;;;11.00;99.90;;;;;;5016793;28;20107;-75
2021/10/06 02:50:49;;;;;;;14.68;8.00;;;11.00;99.90;;;;;;5049644;28;20507;-76
2021/10/06 02:53:16;;;;;;;15.20;9.00;;;11.00;99.90;;;;;;5016865;28;20399;-75
2021/10/06 02:55:42;;;;;;;15.13;8.77;;;11.10;99.90;;;;;;5042988;28;20052;-76
2021/10/06 02:58:07;;;;;;;11.63;8.32;;;11.10;99.90;;;;;;5034830;28;20088;-75
2021/10/06 03:00:34;;;;;;;14.05;8.55;;;11.10;99.90;;;;;;5050422;28;20462;-75
2021/10/06 03:02:59;;;;;;;12.95;8.48;;;11.10;99.90;;;;;;5051320;28;20051;-75
2021/10/06 03:05:25;;;;;;;12.75;8.60;;;11.10;99.90;;;;;;5051955;28;20123;-75
2021/10/06 03:07:51;;;;;;;10.50;7.95;;;11.10;99.90;;;;;;5050963;28;20841;-75
2021/10/06 03:10:17;;;;;;;12.25;8.02;;;11.20;99.90;;;;;;5050876;28;20353;-75
2021/10/06 03:12:42;;;;;;;11.93;8.77;;;11.20;99.90;;;;;;5035291;28;20106;-76
2021/10/06 03:15:10;;;;;;;11.68;7.70;;;11.20;99.90;;;;;;5034837;28;20040;-75
2021/10/06 03:17:36;;;;;;;14.98;9.30;;;11.20;99.90;;;;;;5051671;28;20432;-75
2021/10/06 03:20:04;;;;;;;11.85;8.18;;;11.20;99.90;;;;;;5034754;28;20136;-75
2021/10/06 03:22:29;;;;;;;12.70;7.68;;;11.20;99.90;;;;;;5034231;28;20080;-75
2021/10/06 03:24:55;;;;;;;13.25;7.93;;;11.20;99.90;;;;;;5052045;28;20460;-75
2021/10/06 03:27:21;;;;;;;13.75;8.05;;;11.30;99.90;;;;;;5047635;28;20791;-75
2021/10/06 03:29:47;;;;;;;9.88;8.13;;;11.30;99.90;;;;;;5050287;28;20049;-75
2021/10/06 03:32:13;;;;;;;10.98;7.88;;;11.30;99.90;;;;;;5050133;28;20044;-77
2021/10/06 03:34:38;;;;;;;12.38;8.07;;;11.20;99.90;;;;;;5050526;28;20060;-76
2021/10/06 03:37:04;;;;;;;15.20;8.35;;;11.20;99.90;;;;;;5050477;28;20495;-77
2021/10/06 03:39:30;;;;;;;10.35;6.70;;;11.20;99.90;;;;;;5051249;28;20411;-76
2021/10/06 03:41:56;;;;;;;11.27;6.70;;;11.20;99.90;;;;;;5051286;28;20624;-75
2021/10/06 03:44:22;;;;;;;9.57;6.63;;;11.20;99.90;;;;;;5050205;28;20064;-75
2021/10/06 03:46:48;;;;;;;12.02;6.15;;;11.20;99.90;;;;;;5033487;28;20528;-76
2021/10/06 03:49:13;;;;;;;8.90;6.32;;;11.20;99.90;;;;;;5050407;28;20040;-76
2021/10/06 03:51:39;;;;;;;10.88;5.63;;;11.20;99.90;;;;;;5051866;28;20139;-76
2021/10/06 03:54:05;;;;;;;8.60;6.10;;;11.30;99.90;;;;;;5049339;28;20043;-75
2021/10/06 03:56:34;;;;;;;9.77;5.78;;;11.30;99.90;;;;;;5048567;28;20036;-75
2021/10/06 03:59:00;;;;;;;10.13;5.75;;;11.30;99.90;;;;;;5034142;28;20047;-77
2021/10/06 04:01:25;;;;;;;11.60;5.43;;;11.30;99.90;;;;;;5048577;28;20044;-76
2021/10/06 04:03:51;;;;;;;8.98;5.13;;;11.30;99.90;;;;;;5019098;28;20052;-76
2021/10/06 04:06:17;;;;;;;10.07;5.45;;;11.30;99.90;;;;;;5050786;28;20177;-76
2021/10/06 04:08:42;;;;;;;7.68;5.00;;;11.20;99.90;;;;;;5034178;28;20106;-76
2021/10/06 04:11:08;;;;;;;9.02;4.15;;;11.20;99.90;;;;;;5035064;28;20519;-77
2021/10/06 04:13:34;;;;;;;6.32;4.20;;;11.20;99.90;;;;;;5035509;28;20045;-77
2021/10/06 04:16:02;;;;;;;8.82;4.60;;;11.10;99.90;;;;;;5035681;28;20587;-75
2021/10/06 04:18:28;;;;;;;8.93;4.78;;;11.10;99.90;;;;;;5052444;28;20048;-76
2021/10/06 04:20:54;;;;;;;8.13;4.68;;;11.10;99.90;;;;;;5051938;28;20098;-76
2021/10/06 04:23:19;;;;;;;8.10;4.30;;;11.10;99.90;;;;;;5051145;28;20044;-76
2021/10/06 04:25:45;;;;;;;7.45;4.43;;;11.10;99.90;;;;;;5029754;28;20106;-75
2021/10/06 04:28:11;;;;;;;6.30;4.55;;;11.10;99.90;;;;;;5035477;28;20075;-77
2021/10/06 04:30:37;;;;;;;8.85;4.97;;;11.10;99.90;;;;;;5030528;28;20102;-76
2021/10/06 04:33:03;;;;;;;7.95;4.78;;;11.10;99.90;;;;;;5039082;28;20045;-76
2021/10/06 04:35:29;;;;;;;7.82;5.10;;;11.10;99.90;;;;;;5085554;28;20083;-76
2021/10/06 04:37:55;;;;;;;8.55;5.10;;;11.10;99.90;;;;;;5035163;28;20079;-76
2021/10/06 04:40:21;;;;;;;10.93;5.40;;;11.10;99.90;;;;;;5032386;28;20048;-76
2021/10/06 04:42:47;;;;;;;10.60;5.57;;;11.10;99.90;;;;;;5031747;28;20044;-76
2021/10/06 04:45:13;;;;;;;11.77;6.40;;;11.10;99.90;;;;;;5032601;28;20045;-76
2021/10/06 04:47:39;;;;;;;8.27;6.38;;;11.10;99.90;;;;;;5051278;28;20123;-76
2021/10/06 04:50:05;;;;;;;11.75;6.47;;;11.20;99.90;;;;;;5050940;28;20128;-76
2021/10/06 04:52:31;;;;;;;8.45;7.00;;;11.20;99.90;;;;;;5068542;28;20102;-76
2021/10/06 04:54:57;;;;;;;11.32;6.68;;;11.10;99.90;;;;;;5068217;28;20044;-75
2021/10/06 04:57:23;;;;;;;12.30;7.47;;;11.10;99.90;;;;;;5032602;28;20159;-75
2021/10/06 04:59:49;;;;;;;10.20;6.95;;;11.10;99.90;;;;;;5045858;28;20097;-75
2021/10/06 05:02:15;;;;;;;13.68;7.22;;;11.00;99.90;;;;;;5032487;28;20042;-75
2021/10/06 05:04:41;;;;;;;9.95;7.28;;;11.00;99.90;;;;;;5031793;28;20052;-75
2021/10/06 05:07:07;;;;;;;10.52;7.55;;;11.10;99.90;;;;;;5030426;28;20105;-76
2021/10/06 05:09:33;;;;;;;13.07;8.15;;;11.10;99.90;;;;;;5031317;28;20052;-76
2021/10/06 05:11:59;;;;;;;10.80;8.25;;;11.10;99.90;;;;;;5031186;28;20052;-76
2021/10/06 05:14:25;;;;;;;12.38;8.70;;;11.10;99.90;;;;;;5046607;28;20418;-76
2021/10/06 05:16:54;;;;;;;10.23;8.48;;;11.00;99.90;;;;;;5050716;28;20044;-75
2021/10/06 05:19:20;;;;;;;11.45;8.50;;;11.10;99.90;;;;;;5034305;28;20094;-75
2021/10/06 05:21:46;;;;;;;10.38;8.20;;;11.10;99.90;;;;;;5034682;28;20056;-75
2021/10/06 05:24:12;;;;;;;10.15;7.63;;;11.00;99.90;;;;;;5050830;28;20507;-74
2021/10/06 05:26:38;;;;;;;8.07;7.28;;;11.00;99.90;;;;;;5044044;28;20047;-73
2021/10/06 05:29:04;;;;;;;9.23;6.97;;;11.00;99.90;;;;;;5035285;28;20047;-76
2021/10/06 05:31:29;;;;;;;9.90;7.40;;;11.00;99.90;;;;;;5051728;28;20078;-75
2021/10/06 05:33:55;;;;;;;9.68;7.10;;;11.00;99.90;;;;;;5046596;28;20511;-75
2021/10/06 05:36:21;;;;;;;10.07;6.55;;;10.90;99.90;;;;;;5033699;28;20044;-75
2021/10/06 05:38:47;;;;;;;7.97;7.15;;;10.90;99.90;;;;;;5052573;28;20074;-74
2021/10/06 05:41:13;;;;;;;9.77;7.13;;;10.90;99.90;;;;;;5048329;28;20122;-76
2021/10/06 05:43:38;;;;;;;9.65;6.93;;;10.90;99.90;;;;;;5050972;28;20469;-74
2021/10/06 05:46:04;;;;;;;9.93;7.35;;;10.90;99.90;;;;;;5050298;28;20055;-76
2021/10/06 05:48:30;;;;;;;7.65;6.60;;;10.90;99.90;;;;;;5043253;28;20105;-75
2021/10/06 05:50:56;;;;;;;7.90;6.75;;;10.80;99.90;;;;;;5048729;28;20082;-76
2021/10/06 05:53:22;;;;;;;9.13;7.10;;;10.90;99.90;;;;;;5049056;28;20052;-78
2021/10/06 05:55:48;;;;;;;9.52;7.30;;;10.90;99.90;;;;;;5049755;28;20048;-76
2021/10/06 05:58:14;;;;;;;8.68;7.30;;;10.80;99.90;;;;;;5034670;28;20044;-76
2021/10/06 06:00:40;;;;;;;12.18;7.45;;;10.80;99.90;;;;;;5050173;28;20041;-75
2021/10/06 06:03:09;;;;;;;12.60;8.13;;;10.80;99.90;;;;;;5033833;28;20530;-76
2021/10/06 06:05:39;;;;;;;9.27;7.70;;;10.80;99.90;;;;;;5035324;28;20059;-75
2021/10/06 06:08:05;;;;;;;10.07;8.10;;;10.80;99.90;;;;;;5052557;28;20040;-74
2021/10/06 06:10:34;;;;;;;11.05;8.43;;;10.80;99.90;;;;;;5052334;28;20048;-76
2021/10/06 06:13:01;;;;;;;11.10;8.75;;;10.80;99.90;;;;;;5056516;28;20059;-75
2021/10/06 06:15:27;;;;;;;10.30;8.27;;;10.80;99.90;;;;;;5032057;28;20045;-76
2021/10/06 06:17:52;;;;;;;10.93;8.27;;;10.80;99.90;;;;;;5049996;28;20048;-76
2021/10/06 06:20:27;;;;;;;12.38;8.18;;;10.80;99.90;;;;;;5031771;28;20043;-75
2021/10/06 06:22:54;;;;;;;9.88;8.05;;;10.80;99.90;;;;;;5048856;28;20048;-74
2021/10/06 06:25:21;;;;;;;9.02;7.15;;;10.80;99.90;;;;;;5055960;28;20044;-75
2021/10/06 06:27:47;;;;;;;8.70;7.03;;;10.80;99.90;;;;;;5036407;28;20041;-72
2021/10/06 06:30:13;;;;;;;8.02;7.20;;;10.80;99.90;;;;;;5031356;28;20028;-74
2021/10/06 06:32:41;;;;;;;8.73;6.78;;;10.80;99.90;;;;;;5057282;28;20048;-75
2021/10/06 06:35:08;;;;;;;10.48;7.10;;;10.80;99.90;;;;;;5029069;28;20150;-74
2021/10/06 06:37:34;;;;;;;8.55;6.55;;;10.80;99.90;;;;;;5059679;28;20553;-74
2021/10/06 06:39:59;;;;;;;10.60;6.10;;;10.90;99.90;;;;;;5031417;28;20041;-74
2021/10/06 06:42:26;;;;;;;8.73;6.07;;;10.90;99.90;;;;;;5032716;28;20033;-73
2021/10/06 06:44:51;;;;;;;6.85;5.70;;;10.90;99.90;;;;;;5027202;28;20151;-74
2021/10/06 06:47:17;;;;;;;8.00;6.25;;;10.90;99.90;;;;;;5048053;28;20119;-76
2021/10/06 06:49:43;;;;;;;7.95;5.28;;;10.90;99.90;;;;;;5046691;28;20108;-74
2021/10/06 06:52:09;;;;;;;8.98;5.38;;;10.90;99.90;;;;;;5049963;28;20574;-75
2021/10/06 06:54:36;;;;;;;11.07;5.72;;;11.00;99.90;;;;;;5033832;28;20124;-75
2021/10/06 06:57:02;;;;;;;7.53;4.70;;;11.00;99.90;;;;;;5051058;28;20058;-73
2021/10/06 06:59:28;;;;;;;7.75;5.03;;;11.00;99.90;;;;;;5050555;28;20115;-75
2021/10/06 07:01:56;;;;;;;6.40;5.18;;;11.00;99.90;;;;;;5032366;28;20056;-75
2021/10/06 07:04:22;;;;;;;7.53;5.18;;;11.10;99.90;;;;;;5050788;28;20055;-75
2021/10/06 07:06:48;;;;;;;6.95;4.80;;;11.10;99.90;;;;;;5050351;28;20033;-75
2021/10/06 07:09:14;;;;;;;5.72;4.68;;;11.10;99.90;;;;;;5051587;28;20131;-75
2021/10/06 07:11:39;;;;;;;7.35;4.40;;;11.10;99.90;;;;;;5051577;28;20032;-75
2021/10/06 07:14:05;;;;;;;7.35;4.75;;;11.10;99.90;;;;;;5034323;28;20109;-75
2021/10/06 07:16:31;;;;;;;5.63;4.25;;;11.10;99.90;;;;;;5035022;28;20071;-74
2021/10/06 07:18:57;;;;;;;7.72;5.05;;;11.10;99.90;;;;;;5049713;28;20041;-75
2021/10/06 07:21:26;;;;;;;9.10;4.60;;;11.10;99.90;;;;;;5049984;28;20372;-76
2021/10/06 07:23:51;;;;;;;5.55;4.53;;;11.10;99.90;;;;;;5034407;28;20079;-74
2021/10/06 07:26:17;;;;;;;7.97;4.38;;;11.10;99.90;;;;;;5034104;28;20041;-75
2021/10/06 07:28:43;;;;;;;7.00;4.30;;;11.10;99.90;;;;;;5048545;28;20499;-75
2021/10/06 07:31:09;;;;;;;8.20;4.55;;;11.10;99.90;;;;;;5034407;28;20562;-73
2021/10/06 07:33:35;;;;;;;5.68;4.32;;;11.10;99.90;;;;;;5051608;28;20055;-75
2021/10/06 07:36:01;;;;;;;7.03;4.95;;;11.10;99.90;;;;;;5035120;28;20205;-74
2021/10/06 07:38:29;;;;;;;7.22;4.80;;;11.10;99.90;;;;;;5033087;28;20078;-74
2021/10/06 07:40:55;;;;;;;7.25;4.97;;;11.10;99.90;;;;;;5051706;28;20041;-74
2021/10/06 07:43:21;;;;;;;8.20;5.65;;;11.10;99.90;;;;;;5051578;28;20454;-76
2021/10/06 07:45:47;;;;;;;6.10;4.82;;;11.10;99.90;;;;;;5052133;28;20471;-76
2021/10/06 07:48:13;;;;;;;5.80;4.60;;;11.10;99.90;;;;;;5048361;28;20036;-77
2021/10/06 07:50:39;;;;;;;8.32;5.70;;;11.10;99.90;;;;;;5051258;28;20122;-76
2021/10/06 07:53:05;;;;;;;9.73;7.63;;;11.00;99.90;;;;;;5030096;28;20495;-75
2021/10/06 07:55:33;;;;;;;7.53;6.03;;;11.00;99.90;;;;;;5050316;28;20135;-76
2021/10/06 07:57:59;;;;;;;9.45;6.93;;;11.00;99.90;;;;;;5034165;28;20744;-75
2021/10/06 08:00:25;;;;;;;10.05;7.63;;;11.00;99.90;;;;;;5048366;28;20040;-74
2021/10/06 08:02:51;;;;;;;7.70;6.60;;;10.90;99.90;;;;;;5050310;28;20094;-75
2021/10/06 08:05:17;;;;;;;8.98;7.00;;;10.90;99.90;;;;;;5017367;28;20098;-75
2021/10/06 08:07:43;;;;;;;12.65;8.40;;;11.00;99.90;;;;;;5047657;28;20037;-76
2021/10/06 08:10:09;;;;;;;9.55;6.47;;;10.90;99.90;;;;;;5049907;28;20041;-74
2021/10/06 08:12:35;;;;;;;11.18;7.97;;;10.90;99.90;;;;;;5033372;28;20044;-74
2021/10/06 08:15:00;;;;;;;9.00;7.63;;;10.90;99.90;;;;;;5049482;28;20094;-76
2021/10/06 08:17:26;;;;;;;9.95;8.00;;;10.90;99.90;;;;;;5049338;28;20078;-75
2021/10/06 08:19:52;;;;;;;12.98;8.25;;;10.90;99.90;;;;;;5049395;28;20072;-75
2021/10/06 08:22:18;;;;;;;8.98;7.97;;;10.90;99.90;;;;;;5033038;28;20033;-74
2021/10/06 08:24:45;;;;;;;11.35;9.85;;;10.80;99.90;;;;;;5033296;28;20047;-75
2021/10/06 08:27:12;;;;;;;10.63;8.65;;;10.90;99.90;;;;;;5032783;28;20096;-75
2021/10/06 08:29:38;;;;;;;10.70;8.55;;;10.90;99.90;;;;;;5032653;28;20044;-74
2021/10/06 08:32:04;;;;;;;10.68;8.95;;;10.90;99.90;;;;;;5016630;28;20071;-74
2021/10/06 08:34:30;;;;;;;9.80;8.63;;;10.90;99.90;;;;;;5033488;28;20090;-74
2021/10/06 08:36:56;;;;;;;12.35;9.27;;;11.00;99.90;;;;;;5040945;28;20049;-74
2021/10/06 08:39:22;;;;;;;12.98;8.88;;;11.00;99.90;;;;;;5047115;28;20041;-74
2021/10/06 08:41:48;;;;;;;13.05;10.35;;;11.00;99.90;;;;;;5033112;28;20379;-74
2021/10/06 08:44:15;;;;;;;12.05;9.77;;;11.00;99.90;;;;;;5048898;28;20052;-75
2021/10/06 08:46:41;;;;;;;12.23;9.38;;;10.90;99.90;;;;;;5048343;28;20063;-75
2021/10/06 08:49:07;;;;;;;11.02;9.23;;;10.90;99.90;;;;;;5047174;28;20048;-74
2021/10/06 08:51:32;;;;;;;10.80;9.20;;;11.00;99.90;;;;;;5049746;28;20395;-74
2021/10/06 08:53:58;;;;;;;10.30;8.63;;;11.00;99.90;;;;;;5049522;28;20129;-75
2021/10/06 08:56:27;;;;;;;12.27;9.50;;;11.00;99.90;;;;;;5049153;28;20098;-74
2021/10/06 08:58:53;;;;;;;9.80;8.73;;;11.00;99.90;;;;;;5030968;28;20052;-75
2021/10/06 09:01:23;;;;;;;12.18;8.55;;;11.10;99.90;;;;;;5046514;28;20432;-74
2021/10/06 09:04:15;;;;;;;11.30;8.68;;;11.10;99.90;;;;;;5049610;28;20068;-73
2021/10/06 09:06:43;;;;;;;11.80;8.85;;;11.20;99.90;;;;;;5013225;28;20048;-74
2021/10/06 09:09:12;;;;;;;10.05;8.85;;;11.20;99.90;;;;;;5049009;28;20059;-74
2021/10/06 09:11:38;;;;;;;10.60;7.68;;;11.30;99.90;;;;;;5048883;28;20499;-74
2021/10/06 09:14:06;;;;;;;13.35;8.73;;;11.30;99.90;;;;;;5032831;28;20101;-75
2021/10/06 09:16:34;;;;;;;9.48;7.22;;;11.40;99.90;;;;;;5032205;28;20040;-74
2021/10/06 09:18:59;;;;;;;8.93;7.63;;;11.50;99.90;;;;;;5032653;28;20040;-74
2021/10/06 09:21:25;;;;;;;11.15;7.22;;;11.50;99.90;;;;;;5047287;28;20049;-74
2021/10/06 09:23:51;;;;;;;10.25;7.35;;;11.60;99.90;;;;;;5032429;28;20407;-75
2021/10/06 09:26:17;;;;;;;10.02;7.13;;;11.60;99.90;;;;;;5032112;28;20040;-74
2021/10/06 09:28:51;;;;;;;9.07;6.88;;;11.60;99.90;;;;;;5051757;28;20050;-75
2021/10/06 09:31:20;;;;;;;9.15;6.18;;;11.60;99.90;;;;;;5053685;28;20101;-75
2021/10/06 09:33:50;;;;;;;10.90;6.85;;;11.70;99.90;;;;;;5053766;28;20585;-74
2021/10/06 09:36:18;;;;;;;10.70;6.90;;;11.70;99.90;;;;;;5053159;28;20125;-75
2021/10/06 09:38:56;;;;;;;9.73;7.10;;;11.70;99.90;;;;;;5053563;28;20044;-75
2021/10/06 09:41:35;;;;;;;10.20;6.78;;;11.70;99.90;;;;;;5036621;28;20052;-75
2021/10/06 09:44:08;;;;;;;10.10;7.10;;;11.80;99.90;;;;;;5050021;28;20216;-75
2021/10/06 09:46:51;;;;;;;9.27;6.60;;;11.80;99.90;;;;;;5049971;28;20159;-75
2021/10/06 09:49:27;;;;;;;11.20;6.82;;;11.90;99.90;;;;;;5049300;28;20043;-74
2021/10/06 09:51:55;;;;;;;10.57;7.60;;;11.90;99.90;;;;;;5049233;28;20564;-74
2021/10/06 09:54:21;;;;;;;9.68;7.28;;;12.00;99.90;;;;;;5016055;28;20048;-74
2021/10/06 09:56:49;;;;;;;7.57;6.55;;;12.00;99.90;;;;;;5032926;28;20583;-74
2021/10/06 09:59:16;;;;;;;10.25;7.13;;;12.00;99.90;;;;;;5031786;28;20037;-73
2021/10/06 10:01:44;;;;;;;7.90;6.40;;;12.00;99.90;;;;;;5032345;28;20048;-75
2021/10/06 10:04:11;;;;;;;9.80;6.00;;;12.00;99.90;;;;;;5032268;28;20084;-75
2021/10/06 10:06:38;;;;;;;8.52;5.55;;;12.00;99.90;;;;;;5048318;28;20033;-74
2021/10/06 10:09:07;;;;;;;9.40;6.60;;;12.00;99.90;;;;;;5032559;28;20140;-73
2021/10/06 10:11:38;;;;;;;6.90;6.20;;;12.00;99.90;;;;;;5032393;28;20047;-76
2021/10/06 10:14:07;;;;;;;8.93;5.78;;;12.00;99.90;;;;;;5032803;28;20052;-74
2021/10/06 10:16:33;;;;;;;7.88;6.45;;;12.10;99.90;;;;;;5049205;28;20046;-75
2021/10/06 10:19:13;;;;;;;8.75;4.95;;;12.00;99.90;;;;;;5049800;28;20048;-74
2021/10/06 10:21:45;;;;;;;8.80;6.28;;;12.10;99.90;;;;;;5032608;28;20103;-74
2021/10/06 10:24:20;;;;;;;10.02;6.68;;;12.10;99.90;;;;;;5032389;28;20037;-75
2021/10/06 10:27:04;;;;;;;9.20;6.25;;;12.10;99.90;;;;;;5048796;28;20033;-75
2021/10/06 10:29:35;;;;;;;10.25;5.88;;;12.20;99.90;;;;;;5032029;28;20106;-76
2021/10/06 10:32:04;;;;;;;8.57;6.50;;;12.30;99.90;;;;;;5048629;28;20461;-75
2021/10/06 10:35:01;;;;;;;9.60;6.22;;;12.40;99.90;;;;;;5048936;28;20037;-75
2021/10/06 10:37:48;;;;;;;16.45;7.13;;;12.50;99.90;;;;;;5029011;28;20037;-76
2021/10/06 10:40:45;;;;;;;8.30;5.82;;;12.60;99.90;;;;;;5048236;28;20041;-77
2021/10/06 10:43:23;;;;;;;8.20;5.75;;;12.70;99.90;;;;;;5022920;28;20049;-76
2021/10/06 10:46:05;;;;;;;8.27;5.22;;;12.70;99.90;;;;;;5032158;28;20140;-75
2021/10/06 10:48:38;;;;;;;7.72;5.00;;;12.80;99.90;;;;;;5047163;28;20112;-76
2021/10/06 10:51:07;;;;;;;9.43;5.47;;;12.90;99.90;;;;;;5048556;28;20049;-75
2021/10/06 10:53:51;;;;;;;7.03;4.57;;;13.00;99.90;;;;;;5031705;28;20056;-75
2021/10/06 10:56:38;;;;;;;6.25;4.65;;;13.10;99.90;;;;;;5048012;28;20086;-76
2021/10/06 10:59:07;;;;;;;6.78;4.32;;;13.20;99.90;;;;;;5030254;28;20102;-76
2021/10/06 11:01:48;;;;;;;6.97;4.28;;;13.20;99.90;;;;;;5031876;28;20044;-75
2021/10/06 11:04:19;;;;;;;5.85;3.72;;;13.20;99.90;;;;;;5047434;28;20076;-75
2021/10/06 11:06:56;;;;;;;6.85;4.97;;;13.20;99.90;;;;;;5030905;28;20041;-76
2021/10/06 11:09:34;;;;;;;7.43;4.68;;;13.30;99.90;;;;;;5031018;28;20116;-75
2021/10/06 11:12:06;;;;;;;6.05;3.65;;;13.30;99.90;;;;;;5047630;28;20041;-76
2021/10/06 11:14:37;;;;;;;5.88;3.55;;;13.40;99.90;;;;;;5046877;28;20395;-75
2021/10/06 11:17:09;;;;;;;5.53;3.53;;;13.50;99.90;;;;;;5031077;28;20126;-74
2021/10/06 11:19:45;;;;;;;5.07;3.35;;;13.60;99.90;;;;;;5031127;28;20404;-75
2021/10/06 11:22:23;;;;;;;5.03;3.03;;;13.60;99.90;;;;;;5045762;28;20041;-74
2021/10/06 11:24:51;;;;;;;4.32;2.70;;;13.80;99.90;;;;;;5032035;28;20049;-74
2021/10/06 11:27:17;;;;;;;4.75;2.53;;;13.90;99.90;;;;;;5031163;28;20115;-74
2021/10/06 11:29:44;;;;;;;4.60;2.90;;;14.00;99.90;;;;;;5013633;28;20088;-74
2021/10/06 11:32:10;;;;;;;4.43;2.30;;;14.00;99.90;;;;;;5047389;28;20091;-74
2021/10/06 11:34:46;;;;;;;5.32;2.85;;;14.10;99.90;;;;;;5047509;28;20073;-74
2021/10/06 11:37:17;;;;;;;4.25;2.70;;;14.20;99.90;;;;;;5053126;28;20046;-74
2021/10/06 11:39:43;;;;;;;3.75;2.10;;;14.30;99.90;;;;;;5031691;28;20049;-74
2021/10/06 11:42:10;;;;;;;5.78;2.00;;;14.30;99.90;;;;;;5013706;28;20048;-74
2021/10/06 11:44:37;;;;;;;3.78;2.00;;;14.40;99.90;;;;;;5047412;28;20544;-74
2021/10/06 11:47:08;;;;;;;5.30;2.55;;;14.50;99.90;;;;;;5048931;28;20518;-74
2021/10/06 11:49:37;;;;;;;3.35;2.40;;;14.60;99.90;;;;;;5047195;28;20598;-74
2021/10/06 11:52:04;;;;;;;3.85;2.30;;;14.80;99.90;;;;;;5045819;28;20578;-74
2021/10/06 11:54:30;;;;;;;4.50;2.63;;;14.90;99.90;;;;;;5030390;28;20099;-74
2021/10/06 11:56:59;;;;;;;4.00;2.08;;;15.00;99.90;;;;;;5014554;28;20048;-74
2021/10/06 11:59:28;;;;;;;5.30;2.50;;;14.90;99.90;;;;;;5045723;28;20048;-75
2021/10/06 12:02:04;;;;;;;3.50;1.98;;;14.80;99.90;;;;;;5030599;28;20049;-74
2021/10/06 12:04:35;;;;;;;2.58;1.60;;;14.90;99.90;;;;;;5046390;28;20051;-75
2021/10/06 12:07:06;;;;;;;4.00;1.65;;;15.00;99.90;;;;;;5029018;28;20041;-74
2021/10/06 12:09:41;;;;;;;3.67;1.90;;;15.10;99.90;;;;;;5030540;28;20058;-74
2021/10/06 12:12:11;;;;;;;5.88;1.70;;;15.20;99.90;;;;;;5046690;28;20045;-75
2021/10/06 12:14:45;;;;;;;3.22;1.55;;;15.40;99.90;;;;;;5027485;28;20076;-74
2021/10/06 12:17:15;;;;;;;3.70;1.60;;;15.60;99.90;;;;;;5046717;28;20068;-75
2021/10/06 12:19:42;;;;;;;4.05;1.70;;;15.70;99.90;;;;;;5046928;28;20124;-74
2021/10/06 12:22:09;;;;;;;4.13;1.40;;;15.80;99.90;;;;;;5046214;28;20053;-75
2021/10/06 12:24:40;;;;;;;3.22;1.50;;;15.90;99.90;;;;;;5028139;28;20047;-74
2021/10/06 12:27:05;;;;;;;;;;;15.80;99.90;;;;;;5013659;28;20426;-74
2021/10/06 12:29:34;;;;;;;5.50;2.22;;;15.80;99.90;;;;;;5046196;28;20146;-74
2021/10/06 12:32:15;;;;;;;4.97;1.70;;;15.70;99.90;;;;;;5012618;28;20414;-75
2021/10/06 12:34:41;;;;;;;4.57;1.88;;;15.70;99.90;;;;;;5030036;28;20052;-74
2021/10/06 12:37:07;;;;;;;3.50;1.40;;;15.60;99.90;;;;;;5028610;28;20561;-74
2021/10/06 12:39:34;;;;;;;2.35;0.85;;;15.60;99.90;;;;;;5013775;28;20061;-74
2021/10/06 12:42:04;;;;;;;2.78;1.20;;;15.60;99.90;;;;;;5046533;28;20084;-74
2021/10/06 12:44:41;;;;;;;1.63;0.65;;;15.50;99.90;;;;;;5045696;28;20597;-74
2021/10/06 12:47:16;;;;;;;3.53;0.93;;;15.50;99.90;;;;;;5045514;28;20103;-74